Time;durP1;ratioP1;P1;durP2;ratioP2;P2;SDS_P1;SDS_P2;PMS_P1;PMS_P2;Temp;Humidity;BMP_temperature;BMP_pressure;BME280_temperature;BME280_humidity;BME280_pressure;Samples;Min_cycle;Max_cycle;Signal;HPM_P1;HPM_P2
2021/07/02 00:01:49;;;;;;;1.93;1.57;;;25.60;53.50;;;;;;4914813;29;20927;-81
2021/07/02 00:04:15;;;;;;;1.90;1.53;;;25.50;53.50;;;;;;4913823;29;20509;-81
2021/07/02 00:06:40;;;;;;;2.23;1.57;;;25.60;53.60;;;;;;4913841;29;20224;-81
2021/07/02 00:09:06;;;;;;;2.17;1.90;;;25.50;53.50;;;;;;4914050;29;20417;-82
2021/07/02 00:11:32;;;;;;;2.17;1.80;;;25.50;53.50;;;;;;4914148;29;20184;-82
2021/07/02 00:13:58;;;;;;;1.83;1.63;;;25.50;53.50;;;;;;4915113;29;20492;-82
2021/07/02 00:16:24;;;;;;;1.63;1.50;;;25.50;53.50;;;;;;4914511;29;20216;-82
2021/07/02 00:18:50;;;;;;;2.53;1.90;;;25.50;53.50;;;;;;4914593;29;20699;-83
2021/07/02 00:21:18;;;;;;;1.90;1.70;;;25.50;53.60;;;;;;4917470;29;20181;-83
2021/07/02 00:23:44;;;;;;;2.43;2.17;;;25.50;53.50;;;;;;4920793;29;20421;-82
2021/07/02 00:26:10;;;;;;;1.83;1.60;;;25.50;53.50;;;;;;4919692;29;20416;-81
2021/07/02 00:28:37;;;;;;;2.93;1.73;;;25.50;53.50;;;;;;4917983;29;20481;-81
2021/07/02 00:31:09;;;;;;;1.60;1.33;;;25.50;53.60;;;;;;4918307;29;20244;-81
2021/07/02 00:33:35;;;;;;;1.57;1.47;;;25.50;53.60;;;;;;4919617;29;20424;-81
2021/07/02 00:36:01;;;;;;;2.00;1.67;;;25.50;53.60;;;;;;4917768;29;20475;-81
2021/07/02 00:38:27;;;;;;;2.17;1.97;;;25.50;53.60;;;;;;4917441;29;20425;-81
2021/07/02 00:40:56;;;;;;;2.10;1.90;;;25.50;53.60;;;;;;4918158;29;20181;-81
2021/07/02 00:43:21;;;;;;;1.90;1.73;;;25.50;53.60;;;;;;4919075;29;20429;-81
2021/07/02 00:45:47;;;;;;;2.97;1.87;;;25.50;53.60;;;;;;4920288;29;20424;-80
2021/07/02 00:48:13;;;;;;;2.60;1.40;;;25.50;53.70;;;;;;4921103;29;20184;-80
2021/07/02 00:50:39;;;;;;;1.77;1.60;;;25.50;53.70;;;;;;4920895;29;20425;-81
2021/07/02 00:53:05;;;;;;;1.90;1.60;;;25.50;53.70;;;;;;4920950;29;20434;-80
2021/07/02 00:55:31;;;;;;;2.50;1.63;;;25.50;53.70;;;;;;4920698;29;20160;-80
2021/07/02 00:58:01;;;;;;;2.57;1.80;;;25.50;53.70;;;;;;4921329;29;20411;-80
2021/07/02 01:00:29;;;;;;;2.33;1.63;;;25.50;53.70;;;;;;4921424;29;20428;-80
2021/07/02 01:02:55;;;;;;;1.53;1.40;;;25.50;53.70;;;;;;4921790;29;20444;-80
2021/07/02 01:05:22;;;;;;;2.20;1.50;;;25.50;53.70;;;;;;4921189;29;20436;-81
2021/07/02 01:07:47;;;;;;;1.60;1.33;;;25.50;53.70;;;;;;4905180;29;20174;-80
2021/07/02 01:10:17;;;;;;;1.87;1.70;;;25.50;53.70;;;;;;4919823;29;20423;-80
2021/07/02 01:12:43;;;;;;;2.00;1.80;;;25.50;53.70;;;;;;4919478;29;20168;-80
2021/07/02 01:15:26;;;;;;;2.30;1.80;;;25.40;53.70;;;;;;4919022;29;20429;-81
2021/07/02 01:17:52;;;;;;;2.00;1.80;;;25.50;53.70;;;;;;4917660;29;20460;-81
2021/07/02 01:20:21;;;;;;;2.70;1.70;;;25.40;53.70;;;;;;4917577;29;20416;-81
2021/07/02 01:22:47;;;;;;;2.70;1.83;;;25.50;53.80;;;;;;4917814;29;20408;-81
2021/07/02 01:25:13;;;;;;;1.67;1.57;;;25.50;53.80;;;;;;4916509;29;20427;-80
2021/07/02 01:27:43;;;;;;;1.53;1.40;;;25.50;53.80;;;;;;4916278;29;20808;-80
2021/07/02 01:30:10;;;;;;;1.53;1.40;;;25.50;53.80;;;;;;4916133;29;20475;-80
2021/07/02 01:32:36;;;;;;;1.73;1.40;;;25.40;53.70;;;;;;4916007;29;20427;-80
2021/07/02 01:35:02;;;;;;;1.73;1.63;;;25.50;53.80;;;;;;4916464;29;20421;-80
2021/07/02 01:37:28;;;;;;;1.80;1.63;;;25.50;53.80;;;;;;4915974;29;20496;-80
2021/07/02 01:43:16;;;;;;;2.07;1.97;;;25.50;53.80;;;;;;4917180;29;20225;-80
2021/07/02 01:45:42;;;;;;;2.00;1.40;;;25.40;53.80;;;;;;4917280;29;20412;-81
2021/07/02 01:48:09;;;;;;;1.67;1.40;;;25.40;53.80;;;;;;4916157;29;20533;-81
2021/07/02 01:50:35;;;;;;;2.07;1.70;;;25.40;53.80;;;;;;4915814;29;20448;-81
2021/07/02 01:53:01;;;;;;;1.90;1.70;;;25.40;53.80;;;;;;4916442;29;20420;-81
2021/07/02 01:55:26;;;;;;;2.10;1.90;;;25.40;53.80;;;;;;4917007;29;20161;-81
2021/07/02 01:57:52;;;;;;;1.67;1.53;;;25.40;53.80;;;;;;4916738;29;20262;-81
2021/07/02 02:00:18;;;;;;;1.60;1.30;;;25.40;53.80;;;;;;4917443;29;20240;-81
2021/07/02 02:02:47;;;;;;;2.10;1.83;;;25.40;53.80;;;;;;4916651;29;20188;-81
2021/07/02 02:05:16;;;;;;;1.83;1.57;;;25.40;53.80;;;;;;4917653;29;20444;-81
2021/07/02 02:07:44;;;;;;;2.00;1.80;;;25.40;53.80;;;;;;4918685;29;20431;-81
2021/07/02 02:10:11;;;;;;;1.63;1.50;;;25.40;53.80;;;;;;4919880;29;20428;-81
2021/07/02 02:12:40;;;;;;;1.87;1.70;;;25.40;53.90;;;;;;4920342;29;20474;-81
2021/07/02 02:15:10;;;;;;;2.50;2.03;;;25.40;53.90;;;;;;4921589;29;20425;-81
2021/07/02 02:17:38;;;;;;;1.80;1.50;;;25.40;54.00;;;;;;4920535;29;20565;-81
2021/07/02 02:20:06;;;;;;;1.63;1.53;;;25.30;54.00;;;;;;4921735;29;20420;-80
2021/07/02 02:22:33;;;;;;;1.73;1.50;;;25.30;54.00;;;;;;4922144;29;20413;-80
2021/07/02 02:24:59;;;;;;;1.87;1.63;;;25.30;54.00;;;;;;4923110;29;20420;-80
2021/07/02 02:27:25;;;;;;;1.57;1.43;;;25.30;54.10;;;;;;4923341;29;20439;-81
2021/07/02 02:29:51;;;;;;;1.80;1.50;;;25.30;54.10;;;;;;4923116;29;20405;-81
2021/07/02 02:32:19;;;;;;;2.40;1.83;;;25.30;54.10;;;;;;4922556;29;20419;-81
2021/07/02 02:34:45;;;;;;;2.93;1.60;;;25.30;54.20;;;;;;4922166;29;20180;-81
2021/07/02 02:37:11;;;;;;;2.20;1.73;;;25.20;54.10;;;;;;4922393;29;20461;-81
2021/07/02 02:39:38;;;;;;;2.47;1.80;;;25.30;54.20;;;;;;4922643;29;20420;-82
2021/07/02 02:42:08;;;;;;;1.70;1.47;;;25.20;54.20;;;;;;4921704;29;20429;-82
2021/07/02 02:44:37;;;;;;;1.73;1.47;;;25.20;54.20;;;;;;4921907;29;20425;-82
2021/07/02 02:47:05;;;;;;;1.77;1.60;;;25.20;54.20;;;;;;4922286;29;20432;-81
2021/07/02 02:49:31;;;;;;;4.07;1.67;;;25.20;54.20;;;;;;4921510;29;20456;-81
2021/07/02 02:55:02;;;;;;;2.30;1.47;;;25.20;54.30;;;;;;4890203;29;20199;-81
2021/07/02 02:57:28;;;;;;;1.80;1.40;;;25.10;54.30;;;;;;4922431;29;20486;-80
2021/07/02 02:59:53;;;;;;;2.13;1.60;;;25.20;54.30;;;;;;4922878;29;20408;-80
2021/07/02 03:02:19;;;;;;;2.30;1.90;;;25.20;54.20;;;;;;4922727;29;20432;-81
2021/07/02 03:04:54;;;;;;;2.20;1.70;;;25.20;54.20;;;;;;4922300;29;20295;-81
2021/07/02 03:07:20;;;;;;;1.70;1.60;;;25.20;54.20;;;;;;4922998;29;20456;-81
2021/07/02 03:09:46;;;;;;;1.73;1.57;;;25.20;54.20;;;;;;4923032;29;20405;-81
2021/07/02 03:12:12;;;;;;;1.77;1.47;;;25.20;54.20;;;;;;4922554;29;20440;-82
2021/07/02 03:14:39;;;;;;;1.83;1.53;;;25.20;54.10;;;;;;4922533;29;20419;-82
2021/07/02 03:17:08;;;;;;;1.70;1.60;;;25.20;54.10;;;;;;4922208;29;20298;-82
2021/07/02 03:19:37;;;;;;;2.20;2.00;;;25.20;54.20;;;;;;4921351;29;20444;-82
2021/07/02 03:22:04;;;;;;;1.80;1.60;;;25.20;54.10;;;;;;4923189;29;20392;-82
2021/07/02 03:24:30;;;;;;;1.77;1.67;;;25.20;54.10;;;;;;4923350;29;20414;-82
2021/07/02 03:26:56;;;;;;;1.50;1.40;;;25.30;54.20;;;;;;4923461;29;20417;-81
2021/07/02 03:29:22;;;;;;;3.83;1.50;;;25.20;54.10;;;;;;4922814;29;20436;-81
2021/07/02 03:31:51;;;;;;;2.90;1.70;;;25.20;54.10;;;;;;4923160;29;20460;-81
2021/07/02 03:34:18;;;;;;;1.90;1.70;;;25.20;54.10;;;;;;4923075;29;20182;-81
2021/07/02 03:36:44;;;;;;;1.70;1.60;;;25.20;54.10;;;;;;4922716;29;20484;-82
2021/07/02 03:39:10;;;;;;;1.93;1.67;;;25.20;54.10;;;;;;4923220;29;20405;-82
2021/07/02 03:41:41;;;;;;;2.33;1.60;;;25.20;54.10;;;;;;4923158;29;20428;-82
2021/07/02 03:44:10;;;;;;;1.50;1.40;;;25.20;54.10;;;;;;4908132;29;20425;-81
2021/07/02 03:46:36;;;;;;;2.23;1.67;;;25.20;54.10;;;;;;4923209;29;20453;-81
2021/07/02 03:49:02;;;;;;;2.20;1.63;;;25.20;54.20;;;;;;4922626;29;20433;-82
2021/07/02 03:51:28;;;;;;;2.37;1.50;;;25.10;54.20;;;;;;4922070;29;20417;-82
2021/07/02 03:54:02;;;;;;;1.93;1.70;;;25.20;54.30;;;;;;4921477;29;20441;-82
2021/07/02 03:56:31;;;;;;;1.83;1.57;;;25.10;54.20;;;;;;4905876;29;20449;-82
2021/07/02 03:59:02;;;;;;;2.03;1.83;;;25.10;54.20;;;;;;4921450;29;20468;-84
2021/07/02 04:01:48;;;;;;;1.77;1.60;;;25.10;54.30;;;;;;4923021;29;20436;-82
2021/07/02 04:04:14;;;;;;;3.20;1.90;;;25.10;54.30;;;;;;4923634;29;20438;-82
2021/07/02 04:06:41;;;;;;;2.27;1.73;;;25.10;54.40;;;;;;4921482;29;20453;-82
2021/07/02 04:09:07;;;;;;;1.70;1.60;;;25.10;54.40;;;;;;4921422;29;20448;-82
2021/07/02 04:11:33;;;;;;;1.73;1.63;;;25.10;54.40;;;;;;4921583;29;20444;-82
2021/07/02 04:13:59;;;;;;;2.00;1.70;;;25.10;54.40;;;;;;4921923;29;20420;-82
2021/07/02 04:16:25;;;;;;;2.13;1.93;;;25.10;54.40;;;;;;4921790;29;20817;-81
2021/07/02 04:18:50;;;;;;;1.70;1.60;;;25.10;54.40;;;;;;4922117;29;20214;-81
2021/07/02 04:21:16;;;;;;;2.63;2.13;;;25.10;54.40;;;;;;4921383;29;20444;-82
2021/07/02 04:23:42;;;;;;;2.40;2.20;;;25.10;54.30;;;;;;4921042;29;20183;-81
2021/07/02 04:26:08;;;;;;;2.63;2.43;;;25.00;54.20;;;;;;4921747;29;20404;-82
2021/07/02 04:28:34;;;;;;;3.27;2.03;;;25.10;54.20;;;;;;4921122;29;20188;-81
2021/07/02 04:31:02;;;;;;;3.10;2.77;;;25.10;54.20;;;;;;4920849;29;20430;-82
2021/07/02 04:33:28;;;;;;;3.27;2.50;;;25.10;54.20;;;;;;4919207;29;20177;-81
2021/07/02 04:35:54;;;;;;;3.93;2.40;;;25.10;54.10;;;;;;4919611;29;20552;-82
2021/07/02 04:38:20;;;;;;;3.73;1.80;;;25.10;54.10;;;;;;4919715;29;20416;-82
2021/07/02 04:40:48;;;;;;;2.77;2.13;;;25.20;54.10;;;;;;4920801;29;20768;-82
2021/07/02 04:43:14;;;;;;;4.27;2.73;;;25.10;54.00;;;;;;4919739;29;20176;-82
2021/07/02 04:45:41;;;;;;;2.43;2.20;;;25.20;54.10;;;;;;4919510;29;20413;-83
2021/07/02 04:48:07;;;;;;;2.40;2.07;;;25.10;54.00;;;;;;4917885;29;20424;-81
2021/07/02 04:50:35;;;;;;;2.60;1.90;;;25.20;54.00;;;;;;4918651;29;20420;-84
2021/07/02 04:53:01;;;;;;;2.07;1.70;;;25.20;54.00;;;;;;4917743;29;20452;-82
2021/07/02 04:55:27;;;;;;;3.03;2.50;;;25.20;53.90;;;;;;4917213;29;20421;-82
2021/07/02 04:57:53;;;;;;;2.33;2.13;;;25.20;53.90;;;;;;4917611;29;20468;-82
2021/07/02 05:00:18;;;;;;;1.90;1.80;;;25.20;53.90;;;;;;4917553;29;20619;-82
2021/07/02 05:02:48;;;;;;;2.67;1.83;;;25.20;53.90;;;;;;4918989;29;20184;-82
2021/07/02 05:05:18;;;;;;;2.53;1.80;;;25.20;53.90;;;;;;4918718;29;20436;-82
2021/07/02 05:07:47;;;;;;;2.10;1.90;;;25.30;54.00;;;;;;4916913;29;20432;-86
2021/07/02 05:10:13;;;;;;;2.37;2.03;;;25.20;53.90;;;;;;4916304;29;20477;-83
2021/07/02 05:12:38;;;;;;;2.90;2.20;;;25.30;54.00;;;;;;4917076;29;20440;-82
2021/07/02 05:15:09;;;;;;;3.30;2.07;;;25.30;53.90;;;;;;4919706;29;20429;-82
2021/07/02 05:17:40;;;;;;;5.23;2.63;;;25.30;53.90;;;;;;4919830;29;20460;-81
2021/07/02 05:20:06;;;;;;;3.43;2.97;;;25.30;54.00;;;;;;4920291;29;20441;-83
2021/07/02 05:22:34;;;;;;;3.33;3.03;;;25.30;54.00;;;;;;4919685;29;20420;-81
2021/07/02 05:25:05;;;;;;;4.60;3.53;;;25.30;53.90;;;;;;4920623;29;20417;-82
2021/07/02 05:27:34;;;;;;;3.43;3.00;;;25.20;53.70;;;;;;4919344;29;20413;-82
2021/07/02 05:30:06;;;;;;;4.10;3.13;;;25.20;53.70;;;;;;4919582;29;20503;-81
2021/07/02 05:32:32;;;;;;;3.50;3.20;;;25.20;53.70;;;;;;4919208;29;20488;-82
2021/07/02 05:34:58;;;;;;;3.80;3.17;;;25.20;53.70;;;;;;4919368;29;20867;-82
2021/07/02 05:37:24;;;;;;;2.63;2.43;;;25.20;53.80;;;;;;4918130;29;20208;-81
2021/07/02 05:39:50;;;;;;;2.80;2.60;;;25.20;53.80;;;;;;4917944;29;20184;-81
2021/07/02 05:42:21;;;;;;;3.40;3.10;;;25.20;53.80;;;;;;4916949;29;20486;-81
2021/07/02 05:44:47;;;;;;;3.10;2.77;;;25.20;53.80;;;;;;4918613;29;20157;-80
2021/07/02 05:47:17;;;;;;;2.90;2.70;;;25.20;53.80;;;;;;4918252;29;20453;-81
2021/07/02 05:49:45;;;;;;;3.20;2.57;;;25.20;53.90;;;;;;4917595;29;20453;-81
2021/07/02 05:52:11;;;;;;;2.73;2.30;;;25.20;53.90;;;;;;4917684;29;20428;-81
2021/07/02 05:54:38;;;;;;;3.53;2.43;;;25.20;53.90;;;;;;4917025;29;20449;-80
2021/07/02 05:57:04;;;;;;;3.30;2.30;;;25.20;53.90;;;;;;4917687;29;20204;-81
2021/07/02 05:59:30;;;;;;;3.93;3.47;;;25.20;53.90;;;;;;4917527;29;20484;-81
2021/07/02 06:01:57;;;;;;;2.57;2.10;;;25.20;53.90;;;;;;4916871;29;20429;-80
2021/07/02 06:04:23;;;;;;;3.10;2.43;;;25.20;53.90;;;;;;4917008;29;20279;-82
2021/07/02 06:06:51;;;;;;;3.43;2.53;;;25.20;53.90;;;;;;4917722;29;20437;-82
2021/07/02 06:09:17;;;;;;;3.80;3.30;;;25.20;53.90;;;;;;4918618;29;20400;-81
2021/07/02 06:11:43;;;;;;;5.20;3.73;;;25.20;53.80;;;;;;4917176;29;20439;-81
2021/07/02 06:14:09;;;;;;;4.80;3.10;;;25.20;53.70;;;;;;4917474;29;20412;-81
2021/07/02 06:16:35;;;;;;;6.53;3.60;;;25.20;53.60;;;;;;4916750;29;20207;-81
2021/07/02 06:19:01;;;;;;;4.63;3.50;;;25.20;53.60;;;;;;4917295;29;20192;-81
2021/07/02 06:21:28;;;;;;;3.67;3.07;;;25.20;53.60;;;;;;4900869;29;20223;-81
2021/07/02 06:23:56;;;;;;;4.73;3.57;;;25.20;53.60;;;;;;4918314;29;20417;-82
2021/07/02 06:26:22;;;;;;;3.40;2.93;;;25.20;53.70;;;;;;4915006;29;20444;-82
2021/07/02 06:28:48;;;;;;;3.13;2.70;;;25.20;53.70;;;;;;4917827;29;20424;-81
2021/07/02 06:31:16;;;;;;;5.53;3.20;;;25.20;53.80;;;;;;4918991;29;20537;-80
2021/07/02 06:33:42;;;;;;;3.43;2.90;;;25.20;53.80;;;;;;4916273;29;20798;-81
2021/07/02 06:36:08;;;;;;;3.70;2.20;;;25.20;53.80;;;;;;4917397;29;20476;-80
2021/07/02 06:38:34;;;;;;;3.50;2.50;;;25.20;53.80;;;;;;4917455;29;20184;-81
2021/07/02 06:41:00;;;;;;;2.87;2.40;;;25.10;53.80;;;;;;4916168;29;20424;-81
2021/07/02 06:43:25;;;;;;;3.63;3.33;;;25.20;53.90;;;;;;4917659;29;20409;-82
2021/07/02 06:45:54;;;;;;;2.80;2.50;;;25.20;53.90;;;;;;4917171;29;20176;-81
2021/07/02 06:48:19;;;;;;;3.30;2.87;;;25.20;53.90;;;;;;4917384;29;20183;-81
2021/07/02 06:50:46;;;;;;;3.10;2.67;;;25.20;53.90;;;;;;4917405;29;20440;-81
2021/07/02 06:53:15;;;;;;;2.90;2.63;;;25.20;53.90;;;;;;4918250;29;20244;-81
2021/07/02 06:55:52;;;;;;;3.10;2.37;;;25.20;53.90;;;;;;4922778;29;20395;-80
2021/07/02 06:58:18;;;;;;;6.17;3.10;;;25.20;53.90;;;;;;4922389;29;20416;-80
2021/07/02 07:00:44;;;;;;;3.90;3.00;;;25.20;53.90;;;;;;4922453;29;20460;-81
2021/07/02 07:03:13;;;;;;;2.97;2.63;;;25.20;53.90;;;;;;4921959;29;20240;-81
2021/07/02 07:05:42;;;;;;;4.20;2.60;;;25.20;53.90;;;;;;4922906;29;20571;-82
2021/07/02 07:08:19;;;;;;;4.40;2.90;;;25.20;53.90;;;;;;4922375;29;20928;-81
2021/07/02 07:10:45;;;;;;;3.60;2.80;;;25.20;53.90;;;;;;4921590;29;20432;-83
2021/07/02 07:13:14;;;;;;;2.97;2.67;;;25.20;53.90;;;;;;4918357;29;20449;-82
2021/07/02 07:15:41;;;;;;;2.37;2.17;;;25.30;53.90;;;;;;4931711;29;20194;-81
2021/07/02 07:18:06;;;;;;;2.80;2.60;;;25.30;53.80;;;;;;4935555;29;20428;-81
2021/07/02 07:20:34;;;;;;;3.20;2.63;;;25.30;53.80;;;;;;4935607;29;20782;-83
2021/07/02 07:23:00;;;;;;;2.70;2.50;;;25.40;53.80;;;;;;4946420;28;20185;-83
2021/07/02 07:25:30;;;;;;;2.73;2.53;;;25.40;53.80;;;;;;4914132;29;20421;-83
2021/07/02 07:27:56;;;;;;;2.20;2.00;;;25.50;53.80;;;;;;4916190;29;20191;-82
2021/07/02 07:30:22;;;;;;;2.53;2.33;;;25.50;53.80;;;;;;4933244;29;20432;-82
2021/07/02 07:32:51;;;;;;;3.33;2.07;;;25.50;53.70;;;;;;4933765;29;20188;-82
2021/07/02 07:35:31;;;;;;;4.07;2.23;;;25.60;53.80;;;;;;4935120;29;20887;-84
2021/07/02 07:37:58;;;;;;;3.00;2.50;;;25.60;53.80;;;;;;4931421;29;20465;-83
2021/07/02 07:40:30;;;;;;;2.50;2.30;;;25.60;53.70;;;;;;4931078;29;20475;-84
2021/07/02 07:42:58;;;;;;;2.73;2.30;;;25.60;53.60;;;;;;4931054;29;20839;-83
2021/07/02 07:45:31;;;;;;;2.67;2.47;;;25.60;53.70;;;;;;4932600;29;20973;-83
2021/07/02 07:47:56;;;;;;;3.40;2.27;;;25.60;53.60;;;;;;4932946;29;20411;-84
2021/07/02 07:54:53;;;;;;;;;;;;;;;;;;;;;
2021/07/02 07:57:22;;;;;;;2.93;2.20;;;25.70;53.60;;;;;;4913307;29;20559;-84
2021/07/02 08:06:52;;;;;;;2.67;2.00;;;25.70;53.50;;;;;;4873629;29;20450;-84
2021/07/02 08:09:19;;;;;;;2.17;1.90;;;25.70;53.50;;;;;;4844765;29;20455;-84
2021/07/02 08:11:46;;;;;;;2.63;2.43;;;25.70;53.50;;;;;;4858198;29;20418;-83
2021/07/02 08:14:19;;;;;;;2.90;2.27;;;25.70;53.50;;;;;;4859214;29;20429;-84
2021/07/02 08:16:47;;;;;;;2.27;1.90;;;25.80;53.50;;;;;;4858358;29;20637;-84
2021/07/02 08:19:15;;;;;;;2.27;2.07;;;25.80;53.50;;;;;;4858530;29;20974;-84
2021/07/02 08:21:41;;;;;;;2.83;2.27;;;25.80;53.50;;;;;;4858054;29;20427;-84
2021/07/02 08:24:09;;;;;;;2.93;2.57;;;25.80;53.40;;;;;;4858483;29;20429;-84
2021/07/02 08:26:36;;;;;;;2.60;2.37;;;25.80;53.40;;;;;;4857971;29;20189;-84
2021/07/02 08:32:09;;;;;;;2.40;2.17;;;25.80;53.40;;;;;;4874389;29;20457;-83
2021/07/02 08:34:38;;;;;;;2.47;2.27;;;25.80;53.40;;;;;;4857786;29;20453;-81
2021/07/02 08:37:04;;;;;;;2.43;2.17;;;25.80;53.40;;;;;;4875798;29;20462;-81
2021/07/02 08:39:30;;;;;;;2.47;1.83;;;25.80;53.50;;;;;;4898063;29;20427;-82
2021/07/02 08:42:17;;;;;;;2.40;2.07;;;25.90;53.50;;;;;;4933359;29;20194;-82
2021/07/02 08:44:45;;;;;;;2.10;1.90;;;25.90;53.40;;;;;;4934488;29;20396;-81
2021/07/02 08:50:50;;;;;;;4.40;2.53;;;25.90;53.40;;;;;;4935189;29;20489;-81
2021/07/02 08:53:18;;;;;;;2.40;2.07;;;25.80;53.50;;;;;;4922536;29;20442;-83
2021/07/02 08:55:44;;;;;;;3.17;2.90;;;25.80;53.50;;;;;;4921609;29;20439;-82
2021/07/02 08:58:25;;;;;;;3.00;2.10;;;25.90;53.50;;;;;;4937299;29;20480;-83
2021/07/02 09:00:59;;;;;;;3.10;2.40;;;25.90;53.50;;;;;;4937278;29;20246;-83
2021/07/02 09:03:36;;;;;;;2.43;2.17;;;25.90;54.00;;;;;;4938044;29;20497;-83
2021/07/02 09:06:24;;;;;;;4.90;2.33;;;25.90;53.40;;;;;;4936678;29;20506;-82
2021/07/02 09:09:03;;;;;;;2.43;2.23;;;25.90;53.40;;;;;;4936061;29;20442;-81
2021/07/02 09:12:10;;;;;;;3.07;2.30;;;25.90;53.40;;;;;;4936490;29;20420;-82
2021/07/02 09:15:04;;;;;;;3.23;2.30;;;25.90;53.40;;;;;;4878492;29;20451;-82
2021/07/02 09:18:12;;;;;;;2.80;2.10;;;25.90;53.50;;;;;;4862810;29;20479;-81
2021/07/02 09:20:55;;;;;;;2.93;2.67;;;25.90;53.40;;;;;;4825028;29;20426;-84
2021/07/02 09:23:37;;;;;;;2.20;2.00;;;25.90;53.50;;;;;;4823638;29;20425;-82
2021/07/02 09:26:11;;;;;;;2.20;2.00;;;25.90;53.50;;;;;;4808337;29;20500;-83
2021/07/02 09:28:48;;;;;;;2.60;2.27;;;25.90;53.50;;;;;;4823091;29;20453;-83
2021/07/02 09:31:37;;;;;;;2.63;2.43;;;25.90;53.50;;;;;;4823114;29;20417;-87
2021/07/02 09:34:03;;;;;;;4.07;2.43;;;25.90;53.50;;;;;;4805287;29;20971;-82
2021/07/02 09:36:32;;;;;;;2.37;2.07;;;25.90;53.60;;;;;;4804674;29;20461;-83
2021/07/02 09:39:30;;;;;;;4.00;2.30;;;25.90;53.50;;;;;;4819897;29;20442;-83
2021/07/02 09:41:56;;;;;;;2.33;2.13;;;25.90;53.50;;;;;;4801228;29;20433;-81
2021/07/02 09:44:22;;;;;;;2.37;1.90;;;25.90;53.60;;;;;;4821935;29;20417;-81
2021/07/02 09:46:50;;;;;;;1.80;1.70;;;25.90;53.60;;;;;;4820962;29;20433;-82
2021/07/02 09:49:45;;;;;;;2.33;2.13;;;25.90;53.60;;;;;;4820629;29;20524;-83
2021/07/02 09:52:13;;;;;;;2.60;2.30;;;25.90;53.50;;;;;;4854991;29;20469;-82
2021/07/02 09:55:13;;;;;;;2.47;2.10;;;25.90;53.60;;;;;;4878973;29;20505;-82
2021/07/02 09:57:46;;;;;;;4.20;2.30;;;25.90;53.50;;;;;;4913456;29;20219;-82
2021/07/02 10:00:17;;;;;;;3.13;2.03;;;25.80;53.50;;;;;;4936570;29;20411;-81
2021/07/02 10:03:45;;;;;;;;;;;;;;;;;;;;;
2021/07/02 10:06:24;;;;;;;2.50;1.93;;;25.90;53.50;;;;;;4932358;29;20490;-82
2021/07/02 10:15:31;;;;;;;4.43;3.90;;;25.90;53.50;;;;;;4934276;29;20420;-82
2021/07/02 10:18:06;;;;;;;6.23;3.77;;;25.80;53.50;;;;;;4949699;29;20530;-82
2021/07/02 10:24:10;;;;;;;3.63;3.23;;;25.80;53.50;;;;;;4932427;29;20434;-83
2021/07/02 10:26:50;;;;;;;6.30;4.53;;;25.80;53.50;;;;;;4953656;29;20449;-83
2021/07/02 10:29:19;;;;;;;5.67;4.20;;;25.70;53.40;;;;;;4956214;29;20414;-83
2021/07/02 10:32:19;;;;;;;6.00;4.13;;;25.70;53.40;;;;;;4957098;29;20459;-85
2021/07/02 10:34:46;;;;;;;5.30;4.53;;;25.80;53.50;;;;;;4958247;29;20434;-83
2021/07/02 10:37:46;;;;;;;4.27;3.67;;;25.70;54.00;;;;;;4956010;29;20443;-83
2021/07/02 10:40:21;;;;;;;4.97;4.20;;;25.70;53.50;;;;;;4942453;29;20451;-83
2021/07/02 10:43:40;;;;;;;5.80;4.20;;;25.80;53.60;;;;;;4955987;29;20446;-83
2021/07/02 10:46:25;;;;;;;6.00;4.30;;;25.80;53.60;;;;;;4956664;29;20410;-83
2021/07/02 10:49:13;;;;;;;6.40;4.57;;;25.70;53.50;;;;;;4919101;29;20426;-82
2021/07/02 10:58:16;;;;;;;6.17;4.57;;;25.70;53.70;;;;;;4906800;29;20482;-81
2021/07/02 11:01:17;;;;;;;6.20;4.90;;;25.60;53.80;;;;;;4919408;29;20421;-82
2021/07/02 11:04:07;;;;;;;6.33;5.10;;;25.60;53.80;;;;;;4900130;29;20492;-82
2021/07/02 11:06:51;;;;;;;5.80;4.53;;;25.60;53.90;;;;;;4931307;29;20439;-83
2021/07/02 11:09:19;;;;;;;8.47;4.10;;;25.60;53.90;;;;;;4970086;28;20440;-83
2021/07/02 11:12:07;;;;;;;9.80;5.70;;;25.60;53.90;;;;;;4972272;29;20454;-83
2021/07/02 11:15:08;;;;;;;5.83;4.37;;;25.60;53.90;;;;;;4941023;29;20423;-83
2021/07/02 11:17:45;;;;;;;6.43;4.53;;;25.60;53.90;;;;;;4971235;29;20502;-82
2021/07/02 11:20:20;;;;;;;7.03;5.37;;;25.50;53.80;;;;;;4971364;28;20416;-83
2021/07/02 11:29:52;;;;;;;5.70;4.50;;;25.40;53.70;;;;;;4843856;29;20410;-83
2021/07/02 11:32:38;;;;;;;5.40;4.73;;;25.40;53.80;;;;;;4842397;29;20432;-83
2021/07/02 11:44:57;;;;;;;6.10;4.60;;;25.40;53.70;;;;;;4804604;30;20472;-83
2021/07/02 11:58:15;;;;;;;6.67;5.30;;;25.30;53.70;;;;;;4808831;30;20460;-83
2021/07/02 12:04:07;;;;;;;5.43;4.43;;;25.30;53.70;;;;;;4868767;29;20427;-81
2021/07/02 12:06:37;;;;;;;5.60;5.10;;;25.20;53.70;;;;;;4849450;29;20441;-81
2021/07/02 12:09:07;;;;;;;5.90;5.23;;;25.20;53.70;;;;;;4864201;29;20430;-81
2021/07/02 12:11:38;;;;;;;5.00;4.57;;;25.20;53.60;;;;;;4864496;29;20412;-81
2021/07/02 12:14:15;;;;;;;4.90;4.40;;;25.20;53.50;;;;;;4879652;29;20432;-81
2021/07/02 12:17:10;;;;;;;5.37;4.87;;;25.30;53.60;;;;;;4880927;29;20458;-81
2021/07/02 12:19:41;;;;;;;5.73;4.57;;;25.30;53.50;;;;;;4881203;29;20524;-81
2021/07/02 12:22:32;;;;;;;7.00;4.83;;;25.20;53.60;;;;;;4961753;29;20498;-81
2021/07/02 12:25:39;;;;;;;5.23;4.73;;;25.30;53.60;;;;;;4931775;29;20428;-81
2021/07/02 12:28:40;;;;;;;4.80;4.40;;;25.30;53.60;;;;;;4925441;29;20428;-83
2021/07/02 12:34:57;;;;;;;4.80;4.30;;;25.30;53.60;;;;;;4940432;29;20374;-83
2021/07/02 12:37:59;;;;;;;4.83;4.43;;;25.40;53.70;;;;;;4872204;29;20458;-83
2021/07/02 12:40:28;;;;;;;6.43;4.97;;;25.40;53.70;;;;;;4914800;29;20427;-83
2021/07/02 12:45:42;;;;;;;6.50;4.80;;;25.40;53.50;;;;;;4850629;29;20434;-83
2021/07/02 12:55:15;;;;;;;5.90;4.87;;;25.50;53.40;;;;;;4823077;29;20431;-85
2021/07/02 12:58:10;;;;;;;4.93;4.47;;;25.60;53.40;;;;;;4806303;29;20457;-88
2021/07/02 13:00:45;;;;;;;5.87;4.70;;;25.60;53.40;;;;;;4804676;29;20417;-86
2021/07/02 13:03:42;;;;;;;;;;;;;;;;;;;;;
2021/07/02 13:06:15;;;;;;;5.37;4.67;;;25.60;53.30;;;;;;4818151;29;20501;-80
2021/07/02 13:08:41;;;;;;;5.00;4.60;;;25.70;53.30;;;;;;4829198;29;20452;-80
2021/07/02 13:11:20;;;;;;;5.57;4.67;;;25.60;53.20;;;;;;4839961;29;20428;-82
2021/07/02 13:13:52;;;;;;;6.27;4.90;;;25.70;53.30;;;;;;4840888;29;20174;-81
2021/07/02 13:16:27;;;;;;;5.00;4.50;;;25.70;53.30;;;;;;4839792;29;20542;-81
2021/07/02 13:22:18;;;;;;;4.87;4.40;;;25.80;53.40;;;;;;4854978;29;20407;-81
2021/07/02 13:24:53;;;;;;;5.00;4.50;;;25.80;53.50;;;;;;4837485;29;20419;-82
2021/07/02 13:27:28;;;;;;;5.20;4.37;;;25.80;53.40;;;;;;4859604;29;20536;-82
2021/07/02 13:30:23;;;;;;;4.33;3.93;;;25.80;53.40;;;;;;4892008;29;20516;-83
2021/07/02 13:33:09;;;;;;;6.47;3.70;;;25.80;53.50;;;;;;4837215;29;20427;-81
2021/07/02 13:43:18;;;;;;;5.53;4.10;;;25.80;53.50;;;;;;4914872;29;20481;-85
2021/07/02 13:46:09;;;;;;;5.00;4.30;;;25.90;53.60;;;;;;4839674;29;20440;-84
2021/07/02 13:48:37;;;;;;;4.40;3.93;;;25.90;53.60;;;;;;4841608;29;20424;-85
2021/07/02 13:51:33;;;;;;;4.17;3.77;;;25.90;53.60;;;;;;4843928;29;20526;-85
2021/07/02 13:54:19;;;;;;;5.03;4.13;;;25.90;53.60;;;;;;4842006;29;20521;-86
2021/07/02 14:13:31;;;;;;;4.17;3.77;;;25.90;53.70;;;;;;4859584;29;20493;-85
2021/07/02 14:16:02;;;;;;;3.73;3.33;;;25.90;53.70;;;;;;4933564;29;20406;-84
2021/07/02 14:31:38;;;;;;;4.30;3.90;;;26.00;53.70;;;;;;4943337;29;20419;-83
2021/07/02 14:44:43;;;;;;;3.60;3.30;;;26.10;53.80;;;;;;4887609;29;20492;-83
2021/07/02 14:47:34;;;;;;;3.87;3.53;;;26.10;53.80;;;;;;4855222;29;20412;-83
2021/07/02 14:50:25;;;;;;;4.17;3.43;;;26.10;53.80;;;;;;4877812;29;20402;-83
2021/07/02 14:56:32;;;;;;;3.30;3.00;;;26.10;53.70;;;;;;4889177;29;20461;-84
2021/07/02 14:59:06;;;;;;;3.77;3.47;;;26.10;53.60;;;;;;4873485;29;20578;-82
2021/07/02 15:01:59;;;;;;;4.23;3.83;;;26.10;53.60;;;;;;4872902;29;20427;-83
2021/07/02 15:17:52;;;;;;;4.93;4.43;;;26.10;53.30;;;;;;4920718;29;20626;-83
2021/07/02 15:20:25;;;;;;;5.87;4.50;;;26.10;53.30;;;;;;4893273;29;20441;-82
2021/07/02 15:22:54;;;;;;;5.47;4.70;;;26.10;53.20;;;;;;4885138;29;21003;-82
2021/07/02 15:25:37;;;;;;;5.33;4.80;;;26.10;53.20;;;;;;4900168;29;20432;-83
2021/07/02 15:28:07;;;;;;;5.17;4.67;;;26.10;53.20;;;;;;4907485;29;20420;-82
2021/07/02 15:31:15;;;;;;;8.43;5.40;;;26.10;53.20;;;;;;4884286;29;20445;-82
2021/07/02 15:33:52;;;;;;;8.47;6.07;;;26.10;53.20;;;;;;4871723;29;20436;-82
2021/07/02 15:36:18;;;;;;;5.23;4.80;;;26.00;53.10;;;;;;4881406;29;20461;-82
2021/07/02 15:42:09;;;;;;;5.30;4.80;;;26.00;53.10;;;;;;4889927;29;20216;-83
2021/07/02 15:45:13;;;;;;;5.37;4.87;;;26.00;53.10;;;;;;4900874;29;20540;-82
2021/07/02 15:48:15;;;;;;;6.63;5.90;;;26.00;53.00;;;;;;4930366;29;20496;-83
2021/07/02 15:50:46;;;;;;;7.30;5.23;;;26.00;53.00;;;;;;4924726;29;20456;-84
2021/07/02 15:53:21;;;;;;;5.40;4.90;;;26.00;53.10;;;;;;4934034;29;20427;-84